createdAt,value
2022-11-10T00:00:01.160Z,8.27
2022-11-10T00:02:47.193Z,8.30
2022-11-10T00:05:33.684Z,8.34
2022-11-10T00:08:18.817Z,8.27
2022-11-10T00:11:07.116Z,8.22
2022-11-10T00:14:11.089Z,8.18
2022-11-10T00:17:02.546Z,8.15
2022-11-10T00:19:48.077Z,8.23
2022-11-10T00:22:33.814Z,8.17
2022-11-10T00:25:19.365Z,8.11
2022-11-10T00:28:04.992Z,8.02
2022-11-10T00:30:50.778Z,8.04
2022-11-10T00:33:37.958Z,7.92
2022-11-10T00:36:24.432Z,7.97
2022-11-10T00:39:11.144Z,7.70
2022-11-10T00:41:57.931Z,7.95
2022-11-10T00:44:43.262Z,7.70
2022-11-10T00:47:28.623Z,7.76
2022-11-10T00:50:14.404Z,7.75
2022-11-10T00:53:00.047Z,7.79
2022-11-10T00:55:45.389Z,7.84
2022-11-10T00:58:30.843Z,7.84
2022-11-10T01:01:18.772Z,7.84
2022-11-10T01:04:04.835Z,7.72
2022-11-10T01:06:51.874Z,7.63
2022-11-10T01:09:38.083Z,7.50
2022-11-10T01:12:23.825Z,7.60
2022-11-10T01:15:10.309Z,7.54
2022-11-10T01:17:56.963Z,7.47
2022-11-10T01:20:42.405Z,7.37
2022-11-10T01:23:28.615Z,7.31
2022-11-10T01:26:15.368Z,7.40
2022-11-10T01:29:01.058Z,7.25
2022-11-10T01:31:46.413Z,7.53
2022-11-10T01:34:32.001Z,7.36
2022-11-10T01:37:17.611Z,7.36
2022-11-10T01:40:04.805Z,7.37
2022-11-10T01:42:56.798Z,7.31
2022-11-10T01:45:48.823Z,7.41
2022-11-10T01:48:57.815Z,7.16
2022-11-10T01:51:54.277Z,7.19
2022-11-10T01:54:46.386Z,7.18
2022-11-10T01:57:32.766Z,7.44
2022-11-10T02:00:19.567Z,7.39
2022-11-10T02:03:19.495Z,7.40
2022-11-10T02:06:06.686Z,7.04
2022-11-10T02:08:53.956Z,7.38
2022-11-10T02:11:42.340Z,7.15
2022-11-10T02:14:27.874Z,7.02
2022-11-10T02:17:14.205Z,7.28
2022-11-10T02:20:06.448Z,7.31
2022-11-10T02:22:52.029Z,6.99
2022-11-10T02:25:37.741Z,7.15
2022-11-10T02:28:24.209Z,7.05
2022-11-10T02:31:09.920Z,7.24
2022-11-10T02:33:55.280Z,7.16
2022-11-10T02:36:40.687Z,7.15
2022-11-10T02:39:26.176Z,7.02
2022-11-10T02:42:11.781Z,7.08
2022-11-10T02:44:57.831Z,7.17
2022-11-10T02:47:43.272Z,6.99
2022-11-10T02:50:28.713Z,7.04
2022-11-10T02:53:14.356Z,7.09
2022-11-10T02:55:59.441Z,7.01
2022-11-10T02:58:44.774Z,7.03
2022-11-10T03:01:30.206Z,7.04
2022-11-10T03:04:15.417Z,7.02
2022-11-10T03:07:01.040Z,6.84
2022-11-10T03:09:46.354Z,7.09
2022-11-10T03:12:31.875Z,6.78
2022-11-10T03:15:17.279Z,6.92
2022-11-10T03:18:04.881Z,6.94
2022-11-10T03:20:50.427Z,6.93
2022-11-10T03:23:36.320Z,6.83
2022-11-10T03:26:22.601Z,6.91
2022-11-10T03:29:08.464Z,6.90
2022-11-10T03:31:54.627Z,6.82
2022-11-10T03:34:40.066Z,6.90
2022-11-10T03:37:25.517Z,6.80
2022-11-10T03:40:11.723Z,6.86
2022-11-10T03:42:57.594Z,6.66
2022-11-10T03:45:45.675Z,6.70
2022-11-10T03:48:30.895Z,6.88
2022-11-10T03:51:16.870Z,6.71
2022-11-10T03:54:02.664Z,6.94
2022-11-10T03:56:48.214Z,6.83
2022-11-10T03:59:34.225Z,6.76
2022-11-10T04:02:19.857Z,6.68
2022-11-10T04:05:25.381Z,6.67
2022-11-10T04:08:33.073Z,6.41
2022-11-10T04:11:37.841Z,6.52
2022-11-10T04:14:42.134Z,6.57
2022-11-10T04:17:27.186Z,6.40
2022-11-10T04:20:12.860Z,6.54
2022-11-10T04:23:17.162Z,6.47
2022-11-10T04:26:26.756Z,6.25
2022-11-10T04:29:12.748Z,6.29
2022-11-10T04:31:58.549Z,6.54
2022-11-10T04:34:44.270Z,6.17
2022-11-10T04:37:29.707Z,6.33
2022-11-10T04:40:15.733Z,6.53
2022-11-10T04:43:01.316Z,5.87
2022-11-10T04:45:46.839Z,6.56
2022-11-10T04:48:33.735Z,6.36
2022-11-10T04:51:20.871Z,6.46
2022-11-10T04:54:07.964Z,6.39
2022-11-10T04:56:53.509Z,6.34
2022-11-10T04:59:39.127Z,6.53
2022-11-10T05:02:24.622Z,6.53
2022-11-10T05:05:10.223Z,6.30
2022-11-10T05:07:55.989Z,6.18
2022-11-10T05:10:41.930Z,6.23
2022-11-10T05:13:27.867Z,6.11
2022-11-10T05:16:13.848Z,6.21
2022-11-10T05:18:59.544Z,6.41
2022-11-10T05:21:44.944Z,6.41
2022-11-10T05:24:30.549Z,6.33
2022-11-10T05:27:16.463Z,6.08
2022-11-10T05:30:02.444Z,6.23
2022-11-10T05:32:48.212Z,6.37
2022-11-10T05:35:34.208Z,6.21
2022-11-10T05:38:19.657Z,6.48
2022-11-10T05:41:05.045Z,6.13
2022-11-10T05:43:50.405Z,6.44
2022-11-10T05:46:36.187Z,6.23
2022-11-10T05:49:21.691Z,6.34
2022-11-10T05:52:07.338Z,6.39
2022-11-10T05:54:52.902Z,6.29
2022-11-10T05:57:38.487Z,6.40
2022-11-10T06:00:26.727Z,6.32
2022-11-10T06:03:18.002Z,6.38
2022-11-10T06:06:03.486Z,6.14
2022-11-10T06:08:49.315Z,6.49
2022-11-10T06:11:34.740Z,6.19
2022-11-10T06:14:20.306Z,6.31
2022-11-10T06:17:05.924Z,6.51
2022-11-10T06:19:51.613Z,6.21
2022-11-10T06:22:37.164Z,6.50
2022-11-10T06:25:22.719Z,6.54
2022-11-10T06:28:09.518Z,6.58
2022-11-10T06:30:58.591Z,6.57
2022-11-10T06:33:43.941Z,6.57
2022-11-10T06:36:29.538Z,6.55
2022-11-10T06:39:15.115Z,6.68
2022-11-10T06:42:00.759Z,6.91
2022-11-10T06:44:46.186Z,7.00
2022-11-10T06:47:32.257Z,6.80
2022-11-10T06:50:17.785Z,7.02
2022-11-10T06:53:03.404Z,7.15
2022-11-10T06:55:48.732Z,7.23
2022-11-10T06:58:34.212Z,7.31
2022-11-10T07:01:22.589Z,7.26
2022-11-10T07:04:23.885Z,7.55
2022-11-10T07:07:10.497Z,7.54
2022-11-10T07:09:56.106Z,7.58
2022-11-10T07:12:41.549Z,7.79
2022-11-10T07:15:27.484Z,7.78
2022-11-10T07:18:13.216Z,8.01
2022-11-10T07:20:58.573Z,8.08
2022-11-10T07:23:43.860Z,8.27
2022-11-10T07:26:29.210Z,7.95
2022-11-10T07:29:14.640Z,8.42
2022-11-10T07:32:00.085Z,8.62
2022-11-10T07:34:45.662Z,8.69
2022-11-10T07:37:31.337Z,8.95
2022-11-10T07:40:16.875Z,9.07
2022-11-10T07:43:02.969Z,9.21
2022-11-10T07:45:50.160Z,9.32
2022-11-10T07:48:35.791Z,9.25
2022-11-10T07:51:21.339Z,9.41
2022-11-10T07:54:07.143Z,9.62
2022-11-10T07:56:53.560Z,9.67
2022-11-10T07:59:39.114Z,9.95
2022-11-10T08:02:24.368Z,10.21
2022-11-10T08:05:09.963Z,10.26
2022-11-10T08:07:55.973Z,10.34
2022-11-10T08:10:42.240Z,10.49
2022-11-10T08:13:27.848Z,10.61
2022-11-10T08:16:13.507Z,10.63
2022-11-10T08:18:59.026Z,10.95
2022-11-10T08:21:50.578Z,11.17
2022-11-10T08:24:35.917Z,11.33
2022-11-10T08:27:21.485Z,11.31
2022-11-10T08:30:08.358Z,11.61
2022-11-10T08:32:55.595Z,11.73
2022-11-10T08:35:44.048Z,11.80
2022-11-10T08:38:29.482Z,11.82
2022-11-10T08:41:16.000Z,11.99
2022-11-10T08:44:01.645Z,12.10
2022-11-10T08:46:47.309Z,12.21
2022-11-10T08:49:32.957Z,12.29
2022-11-10T08:52:18.385Z,12.37
2022-11-10T08:55:03.740Z,12.51
2022-11-10T08:57:49.153Z,12.50
2022-11-10T09:00:35.010Z,12.68
2022-11-10T09:03:23.135Z,12.74
2022-11-10T09:06:09.141Z,12.88
2022-11-10T09:08:54.615Z,12.73
2022-11-10T09:11:39.774Z,13.07
2022-11-10T09:14:25.488Z,13.15
2022-11-10T09:17:11.093Z,13.20
2022-11-10T09:19:56.647Z,13.28
2022-11-10T09:22:42.296Z,13.52
2022-11-10T09:25:27.937Z,13.54
2022-11-10T09:28:14.893Z,13.62
2022-11-10T09:31:00.722Z,13.91
2022-11-10T09:33:46.494Z,13.93
2022-11-10T09:36:31.953Z,14.13
2022-11-10T09:39:17.084Z,14.24
2022-11-10T09:42:06.545Z,13.94
2022-11-10T09:45:11.343Z,14.23
2022-11-10T09:48:24.950Z,14.56
2022-11-10T09:51:25.276Z,14.53
2022-11-10T09:54:28.715Z,14.77
2022-11-10T09:57:17.612Z,14.89
2022-11-10T10:00:04.731Z,14.99
2022-11-10T10:02:58.393Z,14.81
2022-11-10T10:05:56.038Z,15.20
2022-11-10T10:08:47.466Z,15.32
2022-11-10T10:11:57.857Z,15.41
2022-11-10T10:14:56.629Z,15.48
2022-11-10T10:18:10.604Z,15.59
2022-11-10T10:20:59.058Z,15.66
2022-11-10T10:24:10.345Z,15.67
2022-11-10T10:27:00.446Z,15.84
2022-11-10T10:29:49.416Z,15.96
2022-11-10T10:32:35.299Z,16.04
2022-11-10T10:35:20.863Z,15.98
2022-11-10T10:38:18.596Z,15.95
2022-11-10T10:41:18.304Z,16.35
2022-11-10T10:44:18.003Z,16.48
2022-11-10T10:47:04.559Z,16.52
2022-11-10T10:49:50.285Z,16.57
2022-11-10T10:52:35.450Z,16.52
2022-11-10T10:55:20.812Z,16.24
2022-11-10T10:58:18.375Z,16.54
2022-11-10T11:01:29.518Z,16.37
2022-11-10T11:04:38.033Z,16.34
2022-11-10T11:07:25.094Z,16.20
2022-11-10T11:10:21.656Z,16.21
2022-11-10T11:13:20.088Z,16.27
2022-11-10T11:16:08.380Z,16.25
2022-11-10T11:18:54.254Z,16.13
2022-11-10T11:21:50.863Z,16.02
2022-11-10T11:24:57.587Z,16.13
2022-11-10T11:27:55.096Z,16.20
2022-11-10T11:31:22.821Z,16.24
2022-11-10T11:34:35.824Z,16.14
2022-11-10T11:37:29.532Z,16.11
2022-11-10T11:40:29.541Z,16.32
2022-11-10T11:43:45.045Z,16.42
2022-11-10T11:46:43.546Z,16.52
2022-11-10T11:49:58.877Z,16.45
2022-11-10T11:52:46.905Z,16.43
2022-11-10T11:55:50.158Z,16.46
2022-11-10T11:59:00.521Z,16.41
2022-11-10T12:01:59.047Z,16.37
2022-11-10T12:05:03.200Z,16.44
2022-11-10T12:08:04.026Z,16.45
2022-11-10T12:11:04.068Z,16.31
2022-11-10T12:14:00.935Z,16.35
2022-11-10T12:17:10.319Z,16.39
2022-11-10T12:20:50.266Z,16.58
2022-11-10T12:24:00.290Z,16.58
2022-11-10T12:26:55.434Z,16.70
2022-11-10T12:29:50.804Z,16.65
2022-11-10T12:32:40.073Z,16.66
2022-11-10T12:35:32.900Z,16.74
2022-11-10T12:38:26.986Z,16.77
2022-11-10T12:41:16.556Z,16.59
2022-11-10T12:44:20.998Z,16.78
2022-11-10T12:47:12.010Z,16.70
2022-11-10T12:50:27.196Z,16.71
2022-11-10T12:53:26.470Z,16.87
2022-11-10T12:56:20.278Z,16.87
2022-11-10T12:59:21.178Z,16.92
2022-11-10T13:02:25.466Z,16.73
2022-11-10T13:05:34.466Z,16.97
2022-11-10T13:08:31.029Z,16.97
2022-11-10T13:11:16.615Z,16.91
2022-11-10T13:14:24.082Z,16.92
2022-11-10T13:17:29.711Z,16.93
2022-11-10T13:20:40.277Z,16.90
2022-11-10T13:23:30.808Z,16.88
2022-11-10T13:26:41.162Z,16.80
2022-11-10T13:29:43.699Z,16.43
2022-11-10T13:32:31.726Z,16.60
2022-11-10T13:35:29.322Z,16.59
2022-11-10T13:38:42.203Z,16.43
2022-11-10T13:41:28.000Z,16.47
2022-11-10T13:44:25.429Z,16.41
2022-11-10T13:47:19.389Z,16.25
2022-11-10T13:50:11.050Z,16.27
2022-11-10T13:53:18.065Z,16.18
2022-11-10T13:56:48.802Z,16.14
2022-11-10T13:59:49.275Z,15.91
2022-11-10T14:02:55.379Z,15.95
2022-11-10T14:05:42.335Z,15.86
2022-11-10T14:08:31.157Z,15.69
2022-11-10T14:11:27.407Z,15.70
2022-11-10T14:14:43.545Z,15.65
2022-11-10T14:17:34.716Z,15.49
2022-11-10T14:20:45.264Z,15.44
2022-11-10T14:23:53.955Z,15.37
2022-11-10T14:26:53.208Z,15.21
2022-11-10T14:29:40.816Z,14.88
2022-11-10T14:32:26.841Z,15.09
2022-11-10T14:35:22.362Z,15.00
2022-11-10T14:38:20.577Z,14.83
2022-11-10T14:41:07.083Z,14.67
2022-11-10T14:44:13.306Z,14.67
2022-11-10T14:47:31.338Z,14.55
2022-11-10T14:50:32.772Z,14.53
2022-11-10T14:53:20.336Z,14.36
2022-11-10T14:56:17.470Z,14.23
2022-11-10T14:59:06.274Z,14.10
2022-11-10T15:01:56.212Z,13.90
2022-11-10T15:04:45.745Z,13.80
2022-11-10T15:07:31.859Z,13.91
2022-11-10T15:10:22.409Z,13.78
2022-11-10T15:13:13.832Z,13.73
2022-11-10T15:16:36.667Z,13.56
2022-11-10T15:19:25.461Z,13.37
2022-11-10T15:22:13.741Z,13.31
2022-11-10T15:25:01.195Z,13.25
2022-11-10T15:27:58.294Z,12.99
2022-11-10T15:30:56.674Z,13.04
2022-11-10T15:33:47.043Z,12.88
2022-11-10T15:36:35.955Z,12.54
2022-11-10T15:39:26.806Z,12.71
2022-11-10T15:42:25.779Z,12.65
2022-11-10T15:45:12.056Z,12.50
2022-11-10T15:47:57.614Z,12.51
2022-11-10T15:50:46.674Z,12.40
2022-11-10T15:53:39.024Z,12.27
2022-11-10T15:56:25.548Z,12.03
2022-11-10T15:59:11.177Z,12.14
2022-11-10T16:01:56.963Z,12.01
2022-11-10T16:04:42.566Z,11.98
2022-11-10T16:07:28.178Z,11.85
2022-11-10T16:10:13.601Z,11.84
2022-11-10T16:12:58.890Z,11.87
2022-11-10T16:15:45.630Z,11.32
2022-11-10T16:18:31.433Z,11.34
2022-11-10T16:21:20.493Z,11.17
2022-11-10T16:24:06.600Z,11.14
2022-11-10T16:26:52.248Z,11.03
2022-11-10T16:29:38.108Z,10.52
2022-11-10T16:32:23.506Z,10.47
2022-11-10T16:35:12.993Z,10.30
2022-11-10T16:37:58.579Z,10.15
2022-11-10T16:40:44.353Z,10.00
2022-11-10T16:43:32.912Z,10.19
2022-11-10T16:46:20.521Z,10.24
2022-11-10T16:49:17.795Z,10.17
2022-11-10T16:52:11.362Z,10.14
2022-11-10T16:54:56.583Z,10.13
2022-11-10T16:57:41.829Z,10.11
2022-11-10T17:00:27.547Z,9.83
2022-11-10T17:03:25.972Z,9.96
2022-11-10T17:06:13.686Z,9.94
2022-11-10T17:09:07.263Z,9.70
2022-11-10T17:11:52.899Z,9.66
2022-11-10T17:14:38.356Z,9.54
2022-11-10T17:17:24.461Z,9.45
2022-11-10T17:20:26.455Z,9.33
2022-11-10T17:23:14.840Z,9.36
2022-11-10T17:26:00.435Z,9.35
2022-11-10T17:28:45.610Z,9.37
2022-11-10T17:31:31.172Z,9.35
2022-11-10T17:34:16.222Z,9.26
2022-11-10T17:37:01.618Z,9.04
2022-11-10T17:39:47.082Z,8.94
2022-11-10T17:42:32.438Z,8.92
2022-11-10T17:45:27.011Z,8.79
2022-11-10T17:48:12.646Z,8.62
2022-11-10T17:50:58.407Z,8.64
2022-11-10T17:53:43.784Z,8.40
2022-11-10T17:56:29.962Z,8.48
2022-11-10T17:59:15.480Z,7.94
2022-11-10T18:02:01.199Z,8.08
2022-11-10T18:04:46.904Z,8.06
2022-11-10T18:07:32.755Z,8.09
2022-11-10T18:10:18.765Z,7.81
2022-11-10T18:13:04.048Z,7.88
2022-11-10T18:15:49.471Z,7.93
2022-11-10T18:18:36.128Z,7.96
2022-11-10T18:21:21.856Z,7.72
2022-11-10T18:24:07.189Z,7.89
2022-11-10T18:26:52.841Z,7.72
2022-11-10T18:29:38.320Z,7.61
2022-11-10T18:32:23.956Z,7.97
2022-11-10T18:35:09.531Z,7.84
2022-11-10T18:37:55.034Z,7.90
2022-11-10T18:40:40.321Z,7.88
2022-11-10T18:43:26.006Z,7.64
2022-11-10T18:46:11.616Z,7.85
2022-11-10T18:48:57.460Z,7.76
2022-11-10T18:51:43.175Z,7.76
2022-11-10T18:54:28.842Z,7.68
2022-11-10T18:57:16.717Z,7.74
2022-11-10T19:00:03.792Z,7.60
2022-11-10T19:02:49.103Z,7.79
2022-11-10T19:05:35.605Z,7.72
2022-11-10T19:08:20.919Z,7.69
2022-11-10T19:11:12.100Z,7.70
2022-11-10T19:14:02.123Z,7.65
2022-11-10T19:16:47.937Z,7.50
2022-11-10T19:19:33.658Z,7.23
2022-11-10T19:22:18.789Z,7.51
2022-11-10T19:25:08.815Z,7.34
2022-11-10T19:27:54.809Z,7.28
2022-11-10T19:30:39.959Z,7.52
2022-11-10T19:33:33.419Z,7.46
2022-11-10T19:36:26.715Z,7.53
2022-11-10T19:39:12.533Z,7.32
2022-11-10T19:41:57.765Z,7.57
2022-11-10T19:44:43.031Z,7.23
2022-11-10T19:47:30.746Z,7.51
2022-11-10T19:50:16.701Z,7.44
2022-11-10T19:53:02.321Z,7.31
2022-11-10T19:55:48.000Z,7.58
2022-11-10T19:58:37.329Z,7.62
2022-11-10T20:01:23.469Z,7.53
2022-11-10T20:04:10.039Z,7.67
2022-11-10T20:07:13.969Z,7.53
2022-11-10T20:10:00.438Z,7.63
2022-11-10T20:12:45.906Z,7.63
2022-11-10T20:15:31.678Z,7.75
2022-11-10T20:18:17.142Z,7.73
2022-11-10T20:21:10.230Z,7.74
2022-11-10T20:23:57.107Z,7.45
2022-11-10T20:26:42.781Z,7.40
2022-11-10T20:29:28.284Z,7.64
2022-11-10T20:32:13.575Z,7.40
2022-11-10T20:35:00.058Z,7.30
2022-11-10T20:37:45.748Z,7.30
2022-11-10T20:40:43.927Z,7.38
2022-11-10T20:43:33.622Z,7.38
2022-11-10T20:46:48.094Z,7.39
2022-11-10T20:49:27.390Z,7.43
2022-11-10T20:52:12.657Z,7.35
2022-11-10T20:54:58.083Z,7.19
2022-11-10T20:57:43.602Z,7.32
2022-11-10T21:00:28.714Z,7.42
2022-11-10T21:03:14.170Z,7.36
2022-11-10T21:06:00.576Z,7.43
2022-11-10T21:08:46.134Z,7.25
2022-11-10T21:11:50.508Z,7.22
2022-11-10T21:14:36.294Z,7.34
2022-11-10T21:17:21.916Z,7.32
2022-11-10T21:20:07.761Z,7.40
2022-11-10T21:22:53.116Z,7.27
2022-11-10T21:25:38.757Z,7.27
2022-11-10T21:28:24.325Z,7.55
2022-11-10T21:31:10.092Z,7.43
2022-11-10T21:33:56.585Z,7.38
2022-11-10T21:36:42.217Z,7.48
2022-11-10T21:39:27.952Z,7.44
2022-11-10T21:42:13.108Z,7.46
2022-11-10T21:44:58.788Z,7.25
2022-11-10T21:47:44.241Z,7.40
2022-11-10T21:50:29.922Z,7.14
2022-11-10T21:53:15.300Z,7.26
2022-11-10T21:56:07.182Z,7.09
2022-11-10T21:58:52.514Z,7.25
2022-11-10T22:01:37.888Z,7.01
2022-11-10T22:04:23.347Z,7.10
2022-11-10T22:07:24.315Z,7.04
2022-11-10T22:10:29.370Z,6.98
2022-11-10T22:13:35.070Z,6.89
2022-11-10T22:16:46.237Z,6.92
2022-11-10T22:19:33.029Z,6.79
2022-11-10T22:22:18.722Z,6.99
2022-11-10T22:25:04.485Z,6.95
2022-11-10T22:27:49.911Z,6.74
2022-11-10T22:30:36.707Z,7.02
2022-11-10T22:33:27.870Z,6.93
2022-11-10T22:36:15.728Z,6.93
2022-11-10T22:39:03.980Z,6.92
2022-11-10T22:42:08.334Z,6.82
2022-11-10T22:44:54.062Z,6.83
2022-11-10T22:47:57.874Z,7.04
2022-11-10T22:50:43.692Z,6.99
2022-11-10T22:53:29.330Z,7.02
2022-11-10T22:56:15.030Z,6.93
2022-11-10T22:59:00.618Z,6.94
2022-11-10T23:01:46.794Z,6.68
2022-11-10T23:04:32.325Z,6.87
2022-11-10T23:07:17.717Z,6.73
2022-11-10T23:10:03.431Z,7.01
2022-11-10T23:12:48.802Z,6.89
2022-11-10T23:15:34.720Z,6.80
2022-11-10T23:18:20.957Z,6.95
2022-11-10T23:21:09.886Z,6.94
2022-11-10T23:23:55.930Z,6.98
2022-11-10T23:26:41.322Z,6.94
2022-11-10T23:29:26.628Z,7.01
2022-11-10T23:32:12.020Z,6.96
2022-11-10T23:34:57.366Z,6.94
2022-11-10T23:37:42.719Z,6.85
2022-11-10T23:40:28.054Z,6.38
2022-11-10T23:43:13.495Z,6.95
2022-11-10T23:46:07.653Z,6.72
2022-11-10T23:48:53.348Z,6.95
2022-11-10T23:51:38.767Z,6.75
2022-11-10T23:54:24.145Z,6.87
2022-11-10T23:57:09.598Z,7.03
2022-11-10T23:59:55.004Z,6.74
